createdAt,value
2018-08-07T00:01:57.312Z,22.10
2018-08-07T00:04:31.681Z,22.10
2018-08-07T00:07:06.221Z,22.10
2018-08-07T00:09:40.993Z,22.10
2018-08-07T00:12:15.172Z,22.10
2018-08-07T00:14:49.180Z,22.10
2018-08-07T00:17:23.600Z,22.00
2018-08-07T00:19:57.526Z,22.00
2018-08-07T00:25:06.976Z,22.00
2018-08-07T00:27:41.515Z,22.00
2018-08-07T00:30:16.207Z,22.00
2018-08-07T00:32:50.245Z,21.90
2018-08-07T00:37:58.031Z,21.80
2018-08-07T00:40:31.966Z,21.70
2018-08-07T00:43:05.866Z,21.50
2018-08-07T00:45:39.836Z,21.50
2018-08-07T00:48:13.900Z,21.40
2018-08-07T00:50:47.944Z,21.40
2018-08-07T00:53:22.205Z,21.40
2018-08-07T00:55:56.812Z,21.40
2018-08-07T00:58:31.546Z,21.50
2018-08-07T01:01:05.924Z,21.40
2018-08-07T01:03:39.675Z,21.40
2018-08-07T01:06:13.757Z,21.50
2018-08-07T01:08:47.981Z,21.40
2018-08-07T01:11:22.104Z,21.40
2018-08-07T01:13:56.280Z,21.40
2018-08-07T01:16:30.197Z,21.40
2018-08-07T01:19:04.454Z,21.30
2018-08-07T01:21:38.770Z,21.40
2018-08-07T01:24:13.001Z,21.40
2018-08-07T01:26:47.977Z,21.40
2018-08-07T01:29:23.044Z,21.50
2018-08-07T01:31:56.985Z,21.60
2018-08-07T01:34:31.181Z,21.60
2018-08-07T01:37:05.988Z,21.60
2018-08-07T01:42:13.824Z,21.60
2018-08-07T01:44:47.990Z,21.60
2018-08-07T01:47:22.155Z,21.60
2018-08-07T01:49:56.152Z,21.60
2018-08-07T01:52:35.728Z,21.70
2018-08-07T01:55:12.367Z,21.70
2018-08-07T01:57:46.289Z,21.70
2018-08-07T02:00:20.728Z,21.70
2018-08-07T02:02:54.856Z,21.60
2018-08-07T02:05:29.125Z,21.60
2018-08-07T02:08:03.185Z,21.70
2018-08-07T02:10:37.033Z,21.60
2018-08-07T02:15:45.294Z,21.70
2018-08-07T02:18:19.216Z,21.60
2018-08-07T02:20:53.342Z,21.60
2018-08-07T02:23:27.420Z,21.60
2018-08-07T02:26:01.871Z,21.60
2018-08-07T02:28:35.852Z,21.60
2018-08-07T02:31:09.922Z,21.60
2018-08-07T02:33:44.090Z,21.60
2018-08-07T02:36:18.027Z,21.60
2018-08-07T02:38:52.110Z,21.50
2018-08-07T02:41:26.196Z,21.40
2018-08-07T02:44:00.446Z,21.40
2018-08-07T02:46:34.541Z,21.40
2018-08-07T02:49:09.213Z,21.40
2018-08-07T02:51:43.495Z,21.40
2018-08-07T02:54:18.369Z,21.40
2018-08-07T02:59:26.208Z,21.40
2018-08-07T03:01:59.964Z,21.40
2018-08-07T03:04:34.161Z,21.30
2018-08-07T03:07:08.366Z,21.30
2018-08-07T03:09:42.452Z,21.30
2018-08-07T03:12:16.566Z,21.20
2018-08-07T03:14:51.242Z,21.20
2018-08-07T03:17:25.397Z,21.20
2018-08-07T03:19:59.445Z,21.20
2018-08-07T03:22:33.763Z,21.10
2018-08-07T03:25:10.850Z,21.20
2018-08-07T03:27:45.859Z,21.10
2018-08-07T03:30:20.526Z,21.00
2018-08-07T03:32:54.376Z,21.00
2018-08-07T03:35:28.494Z,20.90
2018-08-07T03:38:02.737Z,20.90
2018-08-07T03:40:36.635Z,20.80
2018-08-07T03:43:10.670Z,20.70
2018-08-07T03:45:44.915Z,20.70
2018-08-07T03:50:52.732Z,20.40
2018-08-07T03:53:26.783Z,20.30
2018-08-07T03:56:01.363Z,20.20
2018-08-07T03:58:35.551Z,20.20
2018-08-07T04:01:09.496Z,20.10
2018-08-07T04:03:43.297Z,20.00
2018-08-07T04:06:17.208Z,19.90
2018-08-07T04:08:51.625Z,20.00
2018-08-07T04:11:26.020Z,20.00
2018-08-07T04:14:00.264Z,19.90
2018-08-07T04:16:34.412Z,19.90
2018-08-07T04:19:08.530Z,19.80
2018-08-07T04:21:42.355Z,19.90
2018-08-07T04:24:16.160Z,20.00
2018-08-07T04:26:51.571Z,20.00
2018-08-07T04:29:25.507Z,20.00
2018-08-07T04:31:59.557Z,20.10
2018-08-07T04:34:33.327Z,20.30
2018-08-07T04:37:07.270Z,20.40
2018-08-07T04:39:41.016Z,20.50
2018-08-07T04:42:15.200Z,20.50
2018-08-07T04:44:49.218Z,20.60
2018-08-07T04:47:22.916Z,20.60
2018-08-07T04:49:56.865Z,20.60
2018-08-07T04:52:30.905Z,20.60
2018-08-07T04:55:05.793Z,20.70
2018-08-07T04:57:39.818Z,20.80
2018-08-07T05:00:17.747Z,20.80
2018-08-07T05:02:52.134Z,20.90
2018-08-07T05:05:26.282Z,20.90
2018-08-07T05:08:00.424Z,21.00
2018-08-07T05:10:34.480Z,21.00
2018-08-07T05:13:08.406Z,21.00
2018-08-07T05:15:42.287Z,21.00
2018-08-07T05:18:16.105Z,21.10
2018-08-07T05:20:50.177Z,21.10
2018-08-07T05:23:24.106Z,21.10
2018-08-07T05:25:58.006Z,21.10
2018-08-07T05:28:31.859Z,21.10
2018-08-07T05:31:06.005Z,21.20
2018-08-07T05:33:39.951Z,21.20
2018-08-07T05:36:14.255Z,21.30
2018-08-07T05:38:48.078Z,21.30
2018-08-07T05:41:21.970Z,21.30
2018-08-07T05:43:55.837Z,21.40
2018-08-07T05:46:30.230Z,21.40
2018-08-07T05:49:04.117Z,21.50
2018-08-07T05:51:38.212Z,21.50
2018-08-07T05:54:12.170Z,21.70
2018-08-07T05:56:45.971Z,21.70
2018-08-07T05:59:20.041Z,21.80
2018-08-07T06:01:54.157Z,21.90
2018-08-07T06:04:28.177Z,21.90
2018-08-07T06:07:02.092Z,21.90
2018-08-07T06:09:36.477Z,21.90
2018-08-07T06:12:10.606Z,21.90
2018-08-07T06:14:44.687Z,21.90
2018-08-07T06:17:18.487Z,22.00
2018-08-07T06:19:52.362Z,22.10
2018-08-07T06:22:26.270Z,22.20
2018-08-07T06:25:00.642Z,22.40
2018-08-07T06:27:35.413Z,22.50
2018-08-07T06:30:13.172Z,22.70
2018-08-07T06:32:48.386Z,22.90
2018-08-07T06:35:22.249Z,23.10
2018-08-07T06:37:56.366Z,23.30
2018-08-07T06:40:30.449Z,23.50
2018-08-07T06:43:04.439Z,23.60
2018-08-07T06:45:38.397Z,23.80
2018-08-07T06:48:12.266Z,23.90
2018-08-07T06:50:46.227Z,24.10
2018-08-07T06:53:20.388Z,24.30
2018-08-07T06:55:54.370Z,24.40
2018-08-07T06:58:28.290Z,24.50
2018-08-07T07:01:02.710Z,24.70
2018-08-07T07:03:36.785Z,24.80
2018-08-07T07:06:10.990Z,25.00
2018-08-07T07:08:45.137Z,25.10
2018-08-07T07:11:19.997Z,25.30
2018-08-07T07:16:28.314Z,25.60
2018-08-07T07:19:02.921Z,25.80
2018-08-07T07:21:37.052Z,26.00
2018-08-07T07:24:11.220Z,26.20
2018-08-07T07:26:45.301Z,26.40
2018-08-07T07:29:19.160Z,26.60
2018-08-07T07:34:26.979Z,26.80
2018-08-07T07:37:01.020Z,27.00
2018-08-07T07:39:35.451Z,27.10
2018-08-07T07:42:09.791Z,27.30
2018-08-07T07:44:44.065Z,27.50
2018-08-07T07:47:18.792Z,27.70
2018-08-07T07:52:26.855Z,28.00
2018-08-07T07:55:00.850Z,28.10
2018-08-07T07:57:35.330Z,28.20
2018-08-07T08:00:26.347Z,28.30
2018-08-07T08:03:00.376Z,28.40
2018-08-07T08:05:34.667Z,28.60
2018-08-07T08:08:09.333Z,28.70
2018-08-07T08:10:43.200Z,28.80
2018-08-07T08:13:17.456Z,28.90
2018-08-07T08:15:51.647Z,29.00
2018-08-07T08:18:25.764Z,29.20
2018-08-07T08:21:00.012Z,29.30
2018-08-07T08:23:34.224Z,29.40
2018-08-07T08:26:08.654Z,29.50
2018-08-07T08:28:42.732Z,29.60
2018-08-07T08:31:16.838Z,29.70
2018-08-07T08:33:51.041Z,29.80
2018-08-07T08:36:25.181Z,29.90
2018-08-07T08:38:59.298Z,29.90
2018-08-07T08:41:33.380Z,30.00
2018-08-07T08:44:10.057Z,30.20
2018-08-07T08:46:44.213Z,30.30
2018-08-07T08:49:18.553Z,30.40
2018-08-07T08:51:53.403Z,30.50
2018-08-07T08:54:27.586Z,30.50
2018-08-07T08:57:01.617Z,30.60
2018-08-07T08:59:35.740Z,30.70
2018-08-07T09:02:09.855Z,30.80
2018-08-07T09:04:44.063Z,30.90
2018-08-07T09:07:18.171Z,31.00
2018-08-07T09:09:59.011Z,31.10
2018-08-07T09:12:32.833Z,31.20
2018-08-07T09:15:06.990Z,31.40
2018-08-07T09:17:41.216Z,31.40
2018-08-07T09:20:17.826Z,31.50
2018-08-07T09:22:51.916Z,31.60
2018-08-07T09:25:27.554Z,31.70
2018-08-07T09:28:01.723Z,31.80
2018-08-07T09:30:35.738Z,31.90
2018-08-07T09:33:09.839Z,31.90
2018-08-07T09:35:44.085Z,32.00
2018-08-07T09:38:18.115Z,32.00
2018-08-07T09:40:51.851Z,32.10
2018-08-07T09:43:25.796Z,32.30
2018-08-07T09:45:59.939Z,32.40
2018-08-07T09:51:08.112Z,32.70
2018-08-07T09:53:42.027Z,32.80
2018-08-07T09:56:16.468Z,32.90
2018-08-07T09:58:50.537Z,33.10
2018-08-07T10:01:29.942Z,33.20
2018-08-07T10:04:04.021Z,33.30
2018-08-07T10:06:38.409Z,33.40
2018-08-07T10:09:12.448Z,33.50
2018-08-07T10:11:46.627Z,33.60
2018-08-07T10:14:20.660Z,33.60
2018-08-07T10:16:54.748Z,33.70
2018-08-07T10:19:28.911Z,33.80
2018-08-07T10:22:03.141Z,33.90
2018-08-07T10:24:37.336Z,34.00
2018-08-07T10:27:11.205Z,34.00
2018-08-07T10:29:45.227Z,34.10
2018-08-07T10:32:20.254Z,34.10
2018-08-07T10:34:54.507Z,34.00
2018-08-07T10:37:29.212Z,34.10
2018-08-07T10:40:04.035Z,34.10
2018-08-07T10:42:38.087Z,34.10
2018-08-07T10:45:14.120Z,34.20
2018-08-07T10:47:48.326Z,34.20
2018-08-07T10:50:25.080Z,34.30
2018-08-07T10:52:59.859Z,34.30
2018-08-07T10:55:34.311Z,34.30
2018-08-07T10:58:08.874Z,34.40
2018-08-07T11:00:43.398Z,34.50
2018-08-07T11:03:17.472Z,34.50
2018-08-07T11:05:51.489Z,34.50
2018-08-07T11:08:25.477Z,34.50
2018-08-07T11:10:59.341Z,34.60
2018-08-07T11:13:33.721Z,34.60
2018-08-07T11:16:07.847Z,34.60
2018-08-07T11:18:42.151Z,34.70
2018-08-07T11:21:16.048Z,34.80
2018-08-07T11:23:50.144Z,34.70
2018-08-07T11:26:24.677Z,34.80
2018-08-07T11:28:58.658Z,34.80
2018-08-07T11:32:03.571Z,34.80
2018-08-07T11:34:37.608Z,34.90
2018-08-07T11:37:11.465Z,35.00
2018-08-07T11:39:45.696Z,35.00
2018-08-07T11:42:20.191Z,35.10
2018-08-07T11:44:54.494Z,35.20
2018-08-07T11:47:29.571Z,35.30
2018-08-07T11:50:06.615Z,35.40
2018-08-07T11:52:41.038Z,35.40
2018-08-07T11:55:16.515Z,35.50
2018-08-07T11:57:51.955Z,35.50
2018-08-07T12:00:30.645Z,35.40
2018-08-07T12:03:06.892Z,35.40
2018-08-07T12:05:40.884Z,35.30
2018-08-07T12:08:15.599Z,35.30
2018-08-07T12:10:49.600Z,35.40
2018-08-07T12:13:23.599Z,35.50
2018-08-07T12:15:57.750Z,35.50
2018-08-07T12:18:31.847Z,35.50
2018-08-07T12:21:05.879Z,35.50
2018-08-07T12:23:40.409Z,35.60
2018-08-07T12:26:14.620Z,35.60
2018-08-07T12:28:49.005Z,35.70
2018-08-07T12:31:23.280Z,35.90
2018-08-07T12:33:58.267Z,36.00
2018-08-07T12:36:32.346Z,35.70
2018-08-07T12:39:07.960Z,35.60
2018-08-07T12:41:41.964Z,35.70
2018-08-07T12:44:16.225Z,35.80
2018-08-07T12:46:50.338Z,35.90
2018-08-07T12:49:24.538Z,35.90
2018-08-07T12:51:58.767Z,36.10
2018-08-07T12:54:33.005Z,36.40
2018-08-07T12:57:07.535Z,36.40
2018-08-07T12:59:41.705Z,36.60
2018-08-07T13:02:16.028Z,36.80
2018-08-07T13:04:49.881Z,36.70
2018-08-07T13:07:24.831Z,36.90
2018-08-07T13:09:58.996Z,37.00
2018-08-07T13:12:33.109Z,37.20
2018-08-07T13:15:08.632Z,37.30
2018-08-07T13:17:43.390Z,37.50
2018-08-07T13:20:18.170Z,37.50
2018-08-07T13:22:52.362Z,37.60
2018-08-07T13:25:26.395Z,37.60
2018-08-07T13:28:00.521Z,37.70
2018-08-07T13:30:34.679Z,37.50
2018-08-07T13:33:09.368Z,37.50
2018-08-07T13:35:43.584Z,37.70
2018-08-07T13:38:17.957Z,37.90
2018-08-07T13:40:52.701Z,37.90
2018-08-07T13:43:26.751Z,37.70
2018-08-07T13:46:00.773Z,37.70
2018-08-07T13:48:35.413Z,37.70
2018-08-07T13:51:14.671Z,37.90
2018-08-07T13:53:49.498Z,37.90
2018-08-07T13:56:23.394Z,37.50
2018-08-07T13:58:57.485Z,37.20
2018-08-07T14:01:31.927Z,36.80
2018-08-07T14:04:06.341Z,36.70
2018-08-07T14:06:40.616Z,36.80
2018-08-07T14:09:14.795Z,36.70
2018-08-07T14:11:48.690Z,36.60
2018-08-07T14:14:22.672Z,36.40
2018-08-07T14:16:56.560Z,36.30
2018-08-07T14:19:30.666Z,36.10
2018-08-07T14:22:04.624Z,36.00
2018-08-07T14:24:38.696Z,36.00
2018-08-07T14:27:12.894Z,36.00
2018-08-07T14:29:47.151Z,35.80
2018-08-07T14:32:21.795Z,35.60
2018-08-07T14:34:55.867Z,35.50
2018-08-07T14:37:30.023Z,35.40
2018-08-07T14:40:05.946Z,35.30
2018-08-07T14:42:41.512Z,35.40
2018-08-07T14:45:17.841Z,35.30
2018-08-07T14:47:52.755Z,35.40
2018-08-07T14:50:28.490Z,35.50
2018-08-07T14:53:02.447Z,35.60
2018-08-07T14:55:37.250Z,35.60
2018-08-07T14:58:11.206Z,35.50
2018-08-07T15:00:45.581Z,35.40
2018-08-07T15:03:20.832Z,35.40
2018-08-07T15:05:55.984Z,35.40
2018-08-07T15:08:30.007Z,35.30
2018-08-07T15:11:03.960Z,35.30
2018-08-07T15:13:38.428Z,35.30
2018-08-07T15:16:12.691Z,35.30
2018-08-07T15:18:47.006Z,35.20
2018-08-07T15:21:21.067Z,35.30
2018-08-07T15:23:55.792Z,35.30
2018-08-07T15:26:30.143Z,35.60
2018-08-07T15:29:04.248Z,36.10
2018-08-07T15:31:39.455Z,37.20
2018-08-07T15:34:13.346Z,38.50
2018-08-07T15:36:48.342Z,39.30
2018-08-07T15:39:22.738Z,39.30
2018-08-07T15:41:56.832Z,38.80
2018-08-07T15:44:30.890Z,38.10
2018-08-07T15:47:05.053Z,37.50
2018-08-07T15:49:39.676Z,37.00
2018-08-07T15:52:13.908Z,36.50
2018-08-07T15:54:48.361Z,36.10
2018-08-07T15:57:22.328Z,35.80
2018-08-07T15:59:56.758Z,35.60
2018-08-07T16:02:31.207Z,35.40
2018-08-07T16:05:05.860Z,35.20
2018-08-07T16:07:40.031Z,35.10
2018-08-07T16:10:15.830Z,35.00
2018-08-07T16:12:50.956Z,34.80
2018-08-07T16:15:24.885Z,34.90
2018-08-07T16:17:59.668Z,34.90
2018-08-07T16:20:33.968Z,34.80
2018-08-07T16:23:07.873Z,34.70
2018-08-07T16:25:42.375Z,34.70
2018-08-07T16:28:16.805Z,34.60
2018-08-07T16:30:51.126Z,34.50
2018-08-07T16:33:24.909Z,34.40
2018-08-07T16:35:59.253Z,34.30
2018-08-07T16:38:33.311Z,34.10
2018-08-07T16:41:08.222Z,34.20
2018-08-07T16:43:42.492Z,34.20
2018-08-07T16:46:16.532Z,34.10
2018-08-07T16:48:50.876Z,34.10
2018-08-07T16:51:25.295Z,34.00
2018-08-07T16:53:59.393Z,34.00
2018-08-07T16:56:33.451Z,34.00
2018-08-07T16:59:07.352Z,33.90
2018-08-07T17:01:41.457Z,33.90
2018-08-07T17:04:15.572Z,34.20
2018-08-07T17:06:49.502Z,34.60
2018-08-07T17:09:24.101Z,34.80
2018-08-07T17:11:58.425Z,34.80
2018-08-07T17:14:32.367Z,34.90
2018-08-07T17:17:06.733Z,34.80
2018-08-07T17:19:41.047Z,34.80
2018-08-07T17:22:14.980Z,34.70
2018-08-07T17:24:49.330Z,34.60
2018-08-07T17:27:24.328Z,34.50
2018-08-07T17:29:58.323Z,34.30
2018-08-07T17:32:32.458Z,34.10
2018-08-07T17:35:07.017Z,33.90
2018-08-07T17:37:41.461Z,33.80
2018-08-07T17:40:17.021Z,33.60
2018-08-07T17:42:51.038Z,33.50
2018-08-07T17:45:25.125Z,33.40
2018-08-07T17:47:58.994Z,33.40
2018-08-07T17:50:33.385Z,33.40
2018-08-07T17:53:07.576Z,33.30
2018-08-07T17:55:41.867Z,33.30
2018-08-07T17:58:16.120Z,33.30
2018-08-07T18:00:50.552Z,33.30
2018-08-07T18:03:24.602Z,33.20
2018-08-07T18:05:58.952Z,33.20
2018-08-07T18:08:33.605Z,33.10
2018-08-07T18:11:08.132Z,33.10
2018-08-07T18:13:42.313Z,33.00
2018-08-07T18:16:16.751Z,32.90
2018-08-07T18:18:51.755Z,32.80
2018-08-07T18:21:26.014Z,32.70
2018-08-07T18:24:00.153Z,32.60
2018-08-07T18:26:34.411Z,32.50
2018-08-07T18:29:08.626Z,32.40
2018-08-07T18:31:42.755Z,32.30
2018-08-07T18:34:17.012Z,32.20
2018-08-07T18:36:50.955Z,32.00
2018-08-07T18:39:25.312Z,31.80
2018-08-07T18:41:59.629Z,31.60
2018-08-07T18:44:33.888Z,31.40
2018-08-07T18:47:07.906Z,31.20
2018-08-07T18:49:42.206Z,31.00
2018-08-07T18:52:16.183Z,30.90
2018-08-07T18:54:50.420Z,30.70
2018-08-07T18:57:24.832Z,30.60
2018-08-07T18:59:58.812Z,30.50
2018-08-07T19:02:33.011Z,30.30
2018-08-07T19:05:08.435Z,30.10
2018-08-07T19:07:42.549Z,30.00
2018-08-07T19:10:17.062Z,29.90
2018-08-07T19:12:51.313Z,29.80
2018-08-07T19:15:25.410Z,29.80
2018-08-07T19:17:59.402Z,29.70
2018-08-07T19:20:33.714Z,29.60
2018-08-07T19:23:08.144Z,29.60
2018-08-07T19:25:42.321Z,29.50
2018-08-07T19:28:16.700Z,29.50
2018-08-07T19:30:50.985Z,29.40
2018-08-07T19:33:25.101Z,29.30
2018-08-07T19:35:59.118Z,29.20
2018-08-07T19:38:33.360Z,29.10
2018-08-07T19:41:08.150Z,29.00
2018-08-07T19:43:42.429Z,28.90
2018-08-07T19:46:17.261Z,28.90
2018-08-07T19:48:51.458Z,28.80
2018-08-07T19:51:25.738Z,28.80
2018-08-07T19:54:00.739Z,28.70
2018-08-07T19:56:34.754Z,28.60
2018-08-07T19:59:08.915Z,28.50
2018-08-07T20:01:43.240Z,28.40
2018-08-07T20:04:17.097Z,28.30
2018-08-07T20:06:51.785Z,28.20
2018-08-07T20:09:25.778Z,28.00
2018-08-07T20:12:00.096Z,28.00
2018-08-07T20:14:34.680Z,27.90
2018-08-07T20:17:08.708Z,27.80
2018-08-07T20:19:42.822Z,27.70
2018-08-07T20:22:17.113Z,27.70
2018-08-07T20:24:51.576Z,27.60
2018-08-07T20:27:25.911Z,27.60
2018-08-07T20:30:00.608Z,27.50
2018-08-07T20:32:34.505Z,27.40
2018-08-07T20:35:08.996Z,27.30
2018-08-07T20:37:43.070Z,27.20
2018-08-07T20:40:19.896Z,27.10
2018-08-07T20:42:55.108Z,27.00
2018-08-07T20:45:29.220Z,27.00
2018-08-07T20:48:03.499Z,26.90
2018-08-07T20:50:37.883Z,27.00
2018-08-07T20:53:11.880Z,26.90
2018-08-07T20:55:46.181Z,26.90
2018-08-07T20:58:20.120Z,26.80
2018-08-07T21:00:54.219Z,26.70
2018-08-07T21:03:28.615Z,26.60
2018-08-07T21:06:03.272Z,26.50
2018-08-07T21:08:37.142Z,26.40
2018-08-07T21:11:11.216Z,26.40
2018-08-07T21:13:45.341Z,26.20
2018-08-07T21:16:20.259Z,26.20
2018-08-07T21:18:54.138Z,26.10
2018-08-07T21:21:28.112Z,26.00
2018-08-07T21:24:02.087Z,25.90
2018-08-07T21:26:36.033Z,25.90
2018-08-07T21:29:10.410Z,25.80
2018-08-07T21:31:44.546Z,25.70
2018-08-07T21:34:18.396Z,25.60
2018-08-07T21:36:52.326Z,25.60
2018-08-07T21:39:26.485Z,25.50
2018-08-07T21:42:00.745Z,25.40
2018-08-07T21:44:34.985Z,25.40
2018-08-07T21:47:09.343Z,25.30
2018-08-07T21:49:43.426Z,25.20
2018-08-07T21:52:17.695Z,25.20
2018-08-07T21:54:51.676Z,25.10
2018-08-07T21:57:25.614Z,25.00
2018-08-07T21:59:59.951Z,25.00
2018-08-07T22:02:34.082Z,24.90
2018-08-07T22:05:08.411Z,24.90
2018-08-07T22:07:42.665Z,24.80
2018-08-07T22:10:18.399Z,24.70
2018-08-07T22:12:52.857Z,24.60
2018-08-07T22:15:27.411Z,24.60
2018-08-07T22:18:01.282Z,24.50
2018-08-07T22:20:35.445Z,24.40
2018-08-07T22:23:10.241Z,24.40
2018-08-07T22:25:44.760Z,24.30
2018-08-07T22:28:18.697Z,24.30
2018-08-07T22:30:53.227Z,24.20
2018-08-07T22:33:27.215Z,24.30
2018-08-07T22:36:01.328Z,24.30
2018-08-07T22:38:35.419Z,24.30
2018-08-07T22:41:10.122Z,24.20
2018-08-07T22:43:44.318Z,24.20
2018-08-07T22:46:18.200Z,24.20
2018-08-07T22:48:52.157Z,24.10
2018-08-07T22:51:26.480Z,24.10
2018-08-07T22:54:00.415Z,24.10
2018-08-07T22:56:34.266Z,24.10
2018-08-07T22:59:08.369Z,24.10
2018-08-07T23:01:42.300Z,24.10
2018-08-07T23:04:16.316Z,24.00
2018-08-07T23:06:50.480Z,23.90
2018-08-07T23:09:24.639Z,23.90
2018-08-07T23:11:58.706Z,23.90
2018-08-07T23:14:32.897Z,23.90
2018-08-07T23:17:07.292Z,23.90
2018-08-07T23:19:41.036Z,23.90
2018-08-07T23:22:15.177Z,23.90
2018-08-07T23:24:49.355Z,23.90
2018-08-07T23:27:23.307Z,23.80
2018-08-07T23:29:57.405Z,23.80
2018-08-07T23:32:32.565Z,23.70
2018-08-07T23:35:06.665Z,23.80
2018-08-07T23:37:40.756Z,23.80
2018-08-07T23:40:15.575Z,23.70
2018-08-07T23:42:49.605Z,23.70
2018-08-07T23:45:23.597Z,23.60
2018-08-07T23:47:57.793Z,23.50
2018-08-07T23:50:31.843Z,23.50
2018-08-07T23:53:06.077Z,23.50
2018-08-07T23:55:39.855Z,23.60
2018-08-07T23:58:14.100Z,23.60
